createdAt,value
2023-04-18T00:03:38.415Z,89.92
2023-04-18T00:07:41.447Z,88.80
2023-04-18T00:11:43.747Z,88.89
2023-04-18T00:15:46.441Z,89.07
2023-04-18T00:19:48.564Z,90.69
2023-04-18T00:23:50.910Z,90.66
2023-04-18T00:27:53.271Z,88.26
2023-04-18T00:31:55.485Z,88.33
2023-04-18T00:35:57.557Z,88.66
2023-04-18T00:39:59.661Z,88.47
2023-04-18T00:44:02.615Z,88.02
2023-04-18T00:48:04.956Z,87.81
2023-04-18T00:52:07.921Z,87.99
2023-04-18T00:56:10.631Z,87.48
2023-04-18T01:00:13.297Z,88.03
2023-04-18T01:04:20.303Z,88.64
2023-04-18T01:08:28.027Z,88.40
2023-04-18T01:12:34.936Z,86.88
2023-04-18T01:16:37.374Z,86.74
2023-04-18T01:20:41.742Z,88.15
2023-04-18T01:24:43.768Z,89.17
2023-04-18T01:28:45.985Z,89.23
2023-04-18T01:32:48.247Z,89.98
2023-04-18T01:36:50.518Z,91.75
2023-04-18T01:40:53.129Z,93.92
2023-04-18T01:44:55.181Z,93.95
2023-04-18T01:48:59.152Z,94.03
2023-04-18T01:53:01.310Z,94.46
2023-04-18T01:57:03.604Z,97.48
2023-04-18T02:01:05.731Z,100.00
2023-04-18T02:05:09.398Z,100.00
2023-04-18T02:09:17.364Z,100.00
2023-04-18T02:13:19.798Z,100.00
2023-04-18T02:17:23.574Z,99.51
2023-04-18T02:21:25.927Z,98.71
2023-04-18T02:25:29.038Z,96.42
2023-04-18T02:29:31.106Z,96.59
2023-04-18T02:33:33.354Z,94.63
2023-04-18T02:37:35.432Z,94.05
2023-04-18T02:41:39.389Z,93.38
2023-04-18T02:45:41.685Z,92.83
2023-04-18T02:49:43.947Z,92.38
2023-04-18T02:53:46.006Z,91.51
2023-04-18T02:57:48.888Z,92.56
2023-04-18T03:02:09.733Z,93.02
2023-04-18T03:06:16.609Z,92.53
2023-04-18T03:10:18.800Z,92.27
2023-04-18T03:14:21.731Z,92.98
2023-04-18T03:18:27.534Z,93.51
2023-04-18T03:22:32.626Z,93.98
2023-04-18T03:26:35.046Z,93.62
2023-04-18T03:30:37.143Z,93.90
2023-04-18T03:34:41.410Z,93.46
2023-04-18T03:38:45.342Z,93.08
2023-04-18T03:42:47.636Z,94.79
2023-04-18T03:46:51.277Z,93.65
2023-04-18T03:50:53.914Z,94.53
2023-04-18T03:54:56.137Z,94.71
2023-04-18T03:59:02.396Z,95.11
2023-04-18T04:03:07.077Z,95.22
2023-04-18T04:07:09.594Z,95.16
2023-04-18T04:11:12.027Z,96.10
2023-04-18T04:15:14.920Z,95.82
2023-04-18T04:19:23.286Z,95.69
2023-04-18T04:23:42.915Z,96.36
2023-04-18T04:27:53.783Z,96.54
2023-04-18T04:32:02.909Z,95.88
2023-04-18T04:36:16.689Z,96.19
2023-04-18T04:40:23.128Z,96.12
2023-04-18T04:44:31.650Z,95.92
2023-04-18T04:48:34.689Z,98.33
2023-04-18T04:52:40.319Z,96.71
2023-04-18T04:56:42.779Z,98.21
2023-04-18T05:00:45.104Z,98.28
2023-04-18T05:04:47.269Z,98.65
2023-04-18T05:08:50.685Z,99.36
2023-04-18T05:12:52.665Z,97.57
2023-04-18T05:16:56.197Z,97.07
2023-04-18T05:20:58.323Z,96.84
2023-04-18T05:25:01.963Z,96.44
2023-04-18T05:29:04.100Z,95.54
2023-04-18T05:33:06.250Z,94.88
2023-04-18T05:37:08.570Z,95.04
2023-04-18T05:41:11.853Z,94.93
2023-04-18T05:45:13.941Z,93.93
2023-04-18T05:49:16.052Z,93.54
2023-04-18T05:53:18.219Z,92.97
2023-04-18T05:57:20.552Z,92.13
2023-04-18T06:01:23.142Z,93.74
2023-04-18T06:05:25.588Z,93.46
2023-04-18T06:09:27.657Z,91.21
2023-04-18T06:13:29.716Z,92.65
2023-04-18T06:17:32.087Z,92.54
2023-04-18T06:21:34.196Z,91.52
2023-04-18T06:25:36.288Z,89.33
2023-04-18T06:29:39.161Z,88.76
2023-04-18T06:33:41.297Z,87.86
2023-04-18T06:37:44.903Z,86.53
2023-04-18T06:41:48.585Z,85.37
2023-04-18T06:46:06.049Z,85.38
2023-04-18T06:50:08.839Z,86.20
2023-04-18T06:54:11.778Z,84.21
2023-04-18T06:58:16.282Z,83.84
2023-04-18T07:02:18.865Z,83.11
2023-04-18T07:06:21.645Z,82.83
2023-04-18T07:10:23.682Z,83.03
2023-04-18T07:14:26.165Z,82.00
2023-04-18T07:18:37.201Z,81.93
2023-04-18T07:22:41.186Z,81.09
2023-04-18T07:26:43.374Z,79.29
2023-04-18T07:30:46.108Z,76.43
2023-04-18T07:34:48.517Z,76.74
2023-04-18T07:38:51.823Z,76.81
2023-04-18T07:42:53.908Z,74.92
2023-04-18T07:46:56.041Z,72.15
2023-04-18T07:50:58.501Z,72.57
2023-04-18T07:55:00.829Z,76.53
2023-04-18T07:59:02.959Z,77.21
2023-04-18T08:03:07.592Z,77.70
2023-04-18T08:07:09.854Z,76.65
2023-04-18T08:11:12.040Z,77.05
2023-04-18T08:15:14.149Z,75.49
2023-04-18T08:19:16.474Z,73.49
2023-04-18T08:23:18.798Z,74.36
2023-04-18T08:27:20.828Z,73.84
2023-04-18T08:31:22.865Z,73.96
2023-04-18T08:35:24.909Z,72.11
2023-04-18T08:39:27.013Z,73.48
2023-04-18T08:43:31.288Z,69.84
2023-04-18T08:47:35.333Z,65.93
2023-04-18T08:51:40.074Z,70.01
2023-04-18T08:55:42.156Z,71.18
2023-04-18T08:59:48.997Z,70.29
2023-04-18T09:03:52.778Z,74.11
2023-04-18T09:07:56.263Z,73.53
2023-04-18T09:12:09.581Z,68.70
2023-04-18T09:16:11.893Z,69.36
2023-04-18T09:20:15.777Z,67.98
2023-04-18T09:24:21.219Z,66.97
2023-04-18T09:28:29.040Z,65.57
2023-04-18T09:32:31.177Z,64.76
2023-04-18T09:36:35.415Z,63.26
2023-04-18T09:40:37.640Z,60.85
2023-04-18T09:45:08.495Z,55.54
2023-04-18T09:49:11.543Z,59.80
2023-04-18T09:53:20.654Z,58.51
2023-04-18T09:57:28.600Z,58.61
2023-04-18T10:01:31.023Z,58.83
2023-04-18T10:05:36.265Z,59.07
2023-04-18T10:09:42.710Z,55.98
2023-04-18T10:13:48.141Z,55.70
2023-04-18T10:22:02.489Z,56.93
2023-04-18T10:26:09.034Z,55.28
2023-04-18T10:30:11.737Z,54.56
2023-04-18T10:34:18.168Z,55.45
2023-04-18T10:38:23.691Z,53.70
2023-04-18T10:42:55.008Z,50.83
2023-04-18T10:46:56.974Z,54.10
2023-04-18T10:51:21.010Z,50.91
2023-04-18T10:55:30.940Z,51.27
2023-04-18T10:59:34.640Z,52.01
2023-04-18T11:03:37.368Z,51.66
2023-04-18T11:07:41.555Z,51.89
2023-04-18T11:11:44.351Z,51.07
2023-04-18T11:15:46.508Z,52.97
2023-04-18T11:19:48.758Z,51.78
2023-04-18T11:23:51.126Z,51.34
2023-04-18T11:27:53.227Z,50.43
2023-04-18T11:31:58.475Z,53.39
2023-04-18T11:36:01.089Z,54.63
2023-04-18T11:40:04.074Z,55.80
2023-04-18T11:44:06.471Z,53.19
2023-04-18T11:48:09.146Z,51.83
2023-04-18T11:52:13.036Z,51.99
2023-04-18T11:56:15.210Z,50.84
2023-04-18T12:00:19.695Z,52.66
2023-04-18T12:04:22.101Z,52.51
2023-04-18T12:08:25.462Z,52.16
2023-04-18T12:12:27.634Z,52.85
2023-04-18T12:16:30.724Z,52.31
2023-04-18T12:20:36.523Z,53.03
2023-04-18T12:24:38.784Z,54.17
2023-04-18T12:28:45.788Z,54.89
2023-04-18T12:32:54.621Z,57.54
2023-04-18T12:36:56.895Z,57.17
2023-04-18T12:40:59.255Z,56.50
2023-04-18T12:45:03.440Z,55.05
2023-04-18T12:49:05.725Z,53.08
2023-04-18T12:53:07.956Z,53.75
2023-04-18T12:57:10.094Z,53.33
2023-04-18T13:01:14.193Z,54.05
2023-04-18T13:05:17.524Z,53.56
2023-04-18T13:09:19.805Z,57.48
2023-04-18T13:13:21.984Z,55.80
2023-04-18T13:17:24.417Z,54.19
2023-04-18T13:21:26.753Z,56.91
2023-04-18T13:25:28.987Z,56.02
2023-04-18T13:29:31.104Z,57.50
2023-04-18T13:33:33.254Z,59.81
2023-04-18T13:37:35.816Z,61.01
2023-04-18T13:41:48.564Z,60.13
2023-04-18T13:45:54.269Z,59.43
2023-04-18T13:49:57.889Z,60.79
2023-04-18T13:54:03.075Z,61.52
2023-04-18T13:58:05.128Z,61.04
2023-04-18T14:02:09.463Z,59.52
2023-04-18T14:06:11.637Z,57.26
2023-04-18T14:10:14.103Z,57.56
2023-04-18T14:14:16.186Z,57.09
2023-04-18T14:18:21.746Z,58.07
2023-04-18T14:22:25.079Z,56.42
2023-04-18T14:26:27.210Z,54.26
2023-04-18T14:30:30.733Z,58.00
2023-04-18T14:34:34.384Z,58.53
2023-04-18T14:38:37.506Z,58.48
2023-04-18T14:42:39.659Z,59.09
2023-04-18T14:46:43.075Z,61.20
2023-04-18T14:50:47.776Z,64.15
2023-04-18T14:54:50.098Z,66.86
2023-04-18T14:58:52.994Z,69.43
2023-04-18T15:02:56.032Z,71.01
2023-04-18T15:06:58.311Z,71.19
2023-04-18T15:11:01.231Z,73.25
2023-04-18T15:15:03.602Z,70.65
2023-04-18T15:19:06.001Z,69.79
2023-04-18T15:23:09.817Z,69.62
2023-04-18T15:27:12.117Z,67.20
2023-04-18T15:31:15.930Z,67.29
2023-04-18T15:35:18.398Z,72.17
2023-04-18T15:39:23.461Z,70.44
2023-04-18T15:43:25.828Z,76.93
2023-04-18T15:47:27.930Z,75.75
2023-04-18T15:51:31.044Z,79.41
2023-04-18T15:55:34.154Z,80.46
2023-04-18T15:59:36.407Z,80.51
2023-04-18T16:03:38.727Z,82.47
2023-04-18T16:07:42.429Z,83.04
2023-04-18T16:11:44.664Z,86.45
2023-04-18T16:15:48.127Z,88.35
2023-04-18T16:19:50.179Z,86.32
2023-04-18T16:23:52.520Z,90.10
2023-04-18T16:27:54.807Z,87.57
2023-04-18T16:31:56.981Z,88.95
2023-04-18T16:36:02.518Z,87.89
2023-04-18T16:40:06.466Z,91.09
2023-04-18T16:44:09.330Z,91.23
2023-04-18T16:48:11.752Z,91.16
2023-04-18T16:52:14.494Z,91.21
2023-04-18T16:56:16.579Z,92.13
2023-04-18T17:00:19.042Z,91.67
2023-04-18T17:04:21.737Z,90.54
2023-04-18T17:08:25.909Z,91.78
2023-04-18T17:12:28.095Z,92.96
2023-04-18T17:16:30.621Z,92.81
2023-04-18T17:20:32.851Z,92.66
2023-04-18T17:24:35.699Z,92.87
2023-04-18T17:28:37.771Z,94.12
2023-04-18T17:32:45.598Z,94.52
2023-04-18T17:36:47.787Z,94.35
2023-04-18T17:40:58.617Z,96.75
2023-04-18T17:45:02.915Z,93.68
2023-04-18T17:49:05.128Z,93.34
2023-04-18T17:53:07.308Z,92.88
2023-04-18T17:57:09.271Z,95.18
2023-04-18T18:01:15.527Z,96.58
2023-04-18T18:05:17.625Z,96.54
2023-04-18T18:09:19.645Z,97.68
2023-04-18T18:13:21.854Z,97.55
2023-04-18T18:17:24.852Z,98.79
2023-04-18T18:21:27.219Z,99.56
2023-04-18T18:25:29.566Z,100.00
2023-04-18T18:29:31.658Z,100.00
2023-04-18T18:33:33.733Z,100.00
2023-04-18T18:37:35.863Z,100.00
2023-04-18T18:41:39.511Z,100.00
2023-04-18T18:45:41.510Z,100.00
2023-04-18T18:49:43.829Z,100.00
2023-04-18T18:53:46.857Z,100.00
2023-04-18T18:57:48.928Z,100.00
2023-04-18T19:01:51.060Z,100.00
2023-04-18T19:05:55.164Z,100.00
2023-04-18T19:10:00.515Z,100.00
2023-04-18T19:14:03.349Z,100.00
2023-04-18T19:18:06.116Z,100.00
2023-04-18T19:22:08.402Z,100.00
2023-04-18T19:26:10.884Z,100.00
2023-04-18T19:30:13.844Z,100.00
2023-04-18T19:34:19.017Z,100.00
2023-04-18T19:38:21.151Z,100.00
2023-04-18T19:42:23.439Z,100.00
2023-04-18T19:46:26.373Z,100.00
2023-04-18T19:50:28.575Z,100.00
2023-04-18T19:54:33.628Z,100.00
2023-04-18T19:58:46.244Z,100.00
2023-04-18T20:02:48.565Z,100.00
2023-04-18T20:06:50.810Z,100.00
2023-04-18T20:10:53.322Z,100.00
2023-04-18T20:14:58.941Z,100.00
2023-04-18T20:19:01.984Z,100.00
2023-04-18T20:23:04.808Z,100.00
2023-04-18T20:27:07.063Z,100.00
2023-04-18T20:31:11.477Z,100.00
2023-04-18T20:35:13.666Z,100.00
2023-04-18T20:39:16.413Z,100.00
2023-04-18T20:43:19.669Z,100.00
2023-04-18T20:47:21.831Z,100.00
2023-04-18T20:51:23.942Z,100.00
2023-04-18T20:55:26.314Z,100.00
2023-04-18T20:59:28.454Z,100.00
2023-04-18T21:03:31.049Z,100.00
2023-04-18T21:07:33.307Z,100.00
2023-04-18T21:11:35.356Z,100.00
2023-04-18T21:15:38.211Z,100.00
2023-04-18T21:19:40.269Z,100.00
2023-04-18T21:23:43.875Z,100.00
2023-04-18T21:27:45.958Z,100.00
2023-04-18T21:31:49.500Z,100.00
2023-04-18T21:35:51.746Z,100.00
2023-04-18T21:39:53.847Z,100.00
2023-04-18T21:43:56.065Z,100.00
2023-04-18T21:47:58.199Z,100.00
2023-04-18T21:52:00.702Z,100.00
2023-04-18T21:56:02.939Z,100.00
2023-04-18T22:00:08.407Z,100.00
2023-04-18T22:04:12.501Z,100.00
2023-04-18T22:08:14.975Z,100.00
2023-04-18T22:12:17.183Z,100.00
2023-04-18T22:16:19.423Z,100.00
2023-04-18T22:20:21.788Z,100.00
2023-04-18T22:24:25.942Z,100.00
2023-04-18T22:28:28.488Z,100.00
2023-04-18T22:32:30.718Z,100.00
2023-04-18T22:36:32.843Z,100.00
2023-04-18T22:40:34.891Z,100.00
2023-04-18T22:44:37.041Z,100.00
2023-04-18T22:48:39.150Z,100.00
2023-04-18T22:52:41.937Z,100.00
2023-04-18T22:56:43.986Z,100.00
2023-04-18T23:00:46.076Z,100.00
2023-04-18T23:04:52.570Z,100.00
2023-04-18T23:08:57.096Z,100.00
2023-04-18T23:12:59.322Z,100.00
2023-04-18T23:17:01.666Z,100.00
2023-04-18T23:21:03.820Z,100.00
2023-04-18T23:25:06.074Z,100.00
2023-04-18T23:29:08.100Z,100.00
2023-04-18T23:33:10.610Z,100.00
2023-04-18T23:37:12.880Z,100.00
2023-04-18T23:41:14.929Z,100.00
2023-04-18T23:45:17.206Z,100.00
2023-04-18T23:49:19.249Z,100.00
2023-04-18T23:53:22.315Z,100.00
2023-04-18T23:57:24.326Z,100.00
